.
WxDataArchive / Data Records for 2006-01-08
2006-01-07 January 2006 2006-01-09

Data Records for Sunday, 08 January 2006

Time	Temp	Chill	HIndex	Humid	Dewpt	 Wind 	HiWind	WindDir	Rain 	Barom 
-----	----	-----	------	-----	-----	------	------	-------	-----	----- 
00:00	36.5	36.5	36.5	74	29.0	0	1	270	0.00	29.826 
00:05	36.3	36.3	36.3	75	29.1	0	1	270	0.00	29.826 
00:10	36.3	36.3	36.3	75	29.1	0	0	---	0.00	29.826 
00:15	36.2	36.2	36.2	75	29.1	0	0	---	0.00	29.833 
00:20	36.0	36.0	36.0	76	29.2	0	0	---	0.00	29.833 
00:25	35.9	35.9	35.9	76	29.1	0	1	270	0.00	29.833 
00:30	35.8	35.8	35.8	76	29.0	0	0	---	0.00	29.833 
00:35	35.6	35.6	35.6	77	29.1	0	0	---	0.00	29.833 
00:40	35.5	35.5	35.5	77	29.0	0	0	---	0.00	29.833 
00:45	35.3	35.3	35.3	77	28.8	0	0	---	0.00	29.831 
00:50	35.2	35.2	35.2	77	28.7	0	0	---	0.00	29.831 
00:55	35.0	35.0	35.0	78	28.8	0	0	---	0.00	29.831 
01:00	34.9	34.9	34.9	78	28.7	0	0	---	0.00	29.833 
01:05	34.7	34.7	34.7	79	28.9	0	0	---	0.00	29.833 
01:10	34.6	34.6	34.6	80	29.1	0	0	---	0.00	29.833 
01:15	34.4	34.4	34.4	81	29.2	0	0	---	0.00	29.834 
01:20	34.4	34.4	34.4	81	29.2	0	0	---	0.00	29.834 
01:25	34.3	34.3	34.3	81	29.1	0	0	---	0.00	29.834 
01:30	34.1	34.1	34.1	81	28.9	0	0	---	0.00	29.833 
01:35	34.0	34.0	34.0	81	28.8	0	0	---	0.00	29.833 
01:40	33.8	33.8	33.8	81	28.6	0	0	---	0.00	29.833 
01:45	33.5	33.5	33.5	81	28.3	0	0	---	0.00	29.836 
01:50	33.2	33.2	33.2	82	28.3	0	0	---	0.00	29.836 
01:55	32.9	32.9	32.9	83	28.3	0	0	---	0.00	29.836 
02:00	32.5	32.5	32.5	84	28.2	0	0	---	0.00	29.840 
02:05	32.4	32.4	32.4	84	28.1	0	0	---	0.00	29.840 
02:10	32.2	32.2	32.2	85	28.2	0	0	---	0.00	29.840 
02:15	32.1	32.1	32.1	85	28.1	0	0	---	0.00	29.842 
02:20	31.8	31.8	31.8	85	27.8	0	0	---	0.00	29.842 
02:25	31.8	31.8	31.8	86	28.1	0	0	---	0.00	29.842 
02:30	31.5	31.5	31.5	86	27.8	0	0	---	0.00	29.839 
02:35	31.2	31.2	31.2	86	27.5	0	0	---	0.00	29.839 
02:40	31.0	31.0	31.0	86	27.3	0	0	---	0.00	29.839 
02:45	30.9	30.9	30.9	87	27.5	0	0	---	0.00	29.848 
02:50	30.6	30.6	30.6	87	27.2	0	0	---	0.00	29.848 
02:55	30.3	30.3	30.3	87	26.9	0	0	---	0.00	29.848 
03:00	30.3	30.3	30.3	88	27.2	0	0	---	0.00	29.847 
03:05	30.1	30.1	30.1	88	27.0	0	0	---	0.00	29.847 
03:10	30.0	30.0	30.0	88	26.9	0	0	---	0.00	29.847 
03:15	29.8	29.8	29.8	88	26.7	0	0	---	0.00	29.852 
03:20	29.7	29.7	29.7	89	26.9	0	0	---	0.00	29.852 
03:25	29.5	29.5	29.5	89	26.7	0	0	---	0.00	29.852 
03:30	29.4	29.4	29.4	89	26.6	0	0	---	0.00	29.855 
03:35	29.3	29.3	29.3	90	26.7	0	0	---	0.00	29.855 
03:40	29.3	29.3	29.3	90	26.7	0	0	---	0.00	29.855 
03:45	29.1	29.1	29.1	90	26.5	0	0	---	0.00	29.856 
03:50	29.1	29.1	29.1	90	26.5	0	0	---	0.00	29.856 
03:55	29.0	29.0	29.0	90	26.4	0	0	---	0.00	29.856 
04:00	29.0	29.0	29.0	90	26.4	0	0	---	0.00	29.857 
04:05	29.0	29.0	29.0	90	26.4	0	0	---	0.00	29.857 
04:10	28.8	28.8	28.8	91	26.5	0	0	---	0.00	29.857 
04:15	29.0	29.0	29.0	91	26.7	0	1	270	0.00	29.844 
04:20	29.3	29.3	29.3	92	27.3	0	2	270	0.00	29.844 
04:25	29.5	29.5	29.5	92	27.5	0	0	---	0.00	29.844 
04:30	29.5	29.5	29.5	92	27.5	0	1	270	0.00	29.838 
04:35	29.7	29.7	29.7	92	27.7	0	2	270	0.00	29.838 
04:40	30.0	30.0	30.0	92	28.0	0	2	270	0.00	29.838 
04:45	30.1	30.1	30.1	92	28.1	0	1	270	0.00	29.838 
04:50	30.4	30.4	30.4	92	28.4	0	1	270	0.00	29.838 
04:55	30.6	30.6	30.6	92	28.6	0	1	270	0.00	29.838 
05:00	30.7	30.7	30.7	91	28.4	0	1	270	0.00	29.841 
05:05	30.9	30.9	30.9	91	28.6	1	1	270	0.00	29.841 
05:10	31.0	31.0	31.0	91	28.7	1	3	0	0.00	29.841 
05:15	31.2	31.2	31.2	90	28.6	0	1	0	0.00	29.842 
05:20	31.3	31.3	31.3	90	28.7	0	1	0	0.00	29.842 
05:25	31.3	31.3	31.3	90	28.7	0	1	0	0.00	29.842 
05:30	31.5	31.5	31.5	90	28.9	0	1	0	0.00	29.838 
05:35	31.5	31.5	31.5	90	28.9	0	0	---	0.00	29.838 
05:40	31.3	31.3	31.3	90	28.7	0	1	0	0.00	29.838 
05:45	31.3	31.3	31.3	90	28.7	0	0	---	0.00	29.837 
05:50	31.3	31.3	31.3	90	28.7	0	1	0	0.00	29.837 
05:55	31.5	31.5	31.5	91	29.2	1	2	0	0.00	29.837 
06:00	31.5	31.5	31.5	91	29.2	1	2	0	0.00	29.827 
06:05	31.6	31.6	31.6	91	29.3	1	3	135	0.00	29.827 
06:10	31.8	31.8	31.8	91	29.5	2	4	90	0.00	29.827 
06:15	31.9	31.9	31.9	91	29.6	2	4	90	0.00	29.818 
06:20	31.9	31.9	31.9	91	29.6	2	3	90	0.00	29.818 
06:25	31.9	31.9	31.9	91	29.6	2	3	90	0.00	29.818 
06:30	31.9	31.9	31.9	91	29.6	2	5	90	0.00	29.815 
06:35	31.9	31.9	31.9	91	29.6	2	5	90	0.00	29.815 
06:40	31.9	31.9	31.9	91	29.6	2	3	90	0.00	29.815 
06:45	31.9	31.9	31.9	91	29.6	2	3	90	0.00	29.809 
06:50	31.9	31.9	31.9	91	29.6	2	4	68	0.00	29.809 
06:55	31.9	31.9	31.9	90	29.3	2	3	68	0.00	29.809 
07:00	31.9	31.9	31.9	90	29.3	2	4	90	0.00	29.806 
07:05	32.1	32.1	32.1	90	29.5	2	4	90	0.00	29.806 
07:10	32.1	32.1	32.1	90	29.5	2	5	90	0.00	29.806 
07:15	32.2	32.2	32.2	90	29.6	3	6	90	0.00	29.802 
07:20	32.2	32.2	32.2	89	29.3	3	5	90	0.00	29.802 
07:25	32.2	32.2	32.2	89	29.3	3	6	90	0.00	29.802 
07:30	32.2	32.2	32.2	89	29.3	3	5	90	0.00	29.797 
07:35	32.2	32.2	32.2	89	29.3	3	6	90	0.00	29.797 
07:40	32.2	28.3	32.2	89	29.3	4	7	90	0.00	29.797 
07:45	32.2	32.2	32.2	89	29.3	3	7	112	0.00	29.789 
07:50	32.2	32.2	32.2	89	29.3	3	6	112	0.00	29.789 
07:55	32.2	32.2	32.2	89	29.3	3	7	90	0.00	29.789 
08:00	32.2	32.2	32.2	89	29.3	3	6	112	0.00	29.787 
08:05	32.2	28.3	32.2	89	29.3	4	9	90	0.00	29.787 
08:10	32.1	28.2	32.1	89	29.2	4	6	90	0.00	29.787 
08:15	32.1	32.1	32.1	89	29.2	3	5	90	0.00	29.775 
08:20	32.1	28.2	32.1	89	29.2	4	6	90	0.00	29.775 
08:25	32.1	32.1	32.1	89	29.2	3	5	90	0.00	29.775 
08:30	32.1	32.1	32.1	89	29.2	3	6	90	0.00	29.781 
08:35	32.1	28.2	32.1	89	29.2	4	7	90	0.00	29.781 
08:40	32.1	32.1	32.1	89	29.2	3	6	112	0.00	29.781 
08:45	32.1	32.1	32.1	89	29.2	3	6	90	0.00	29.776 
08:50	32.1	32.1	32.1	89	29.2	3	7	112	0.00	29.776 
08:55	32.1	32.1	32.1	89	29.2	3	7	90	0.00	29.776 
09:00	32.2	28.3	32.2	88	29.1	4	10	112	0.00	29.762 
09:05	32.2	28.3	32.2	88	29.1	4	9	90	0.00	29.762 
09:10	32.4	27.5	32.4	88	29.3	5	10	112	0.00	29.762 
09:15	32.5	27.7	32.5	87	29.1	5	10	90	0.00	29.746 
09:20	32.7	27.1	32.7	87	29.3	6	11	90	0.00	29.746 
09:25	32.8	28.0	32.8	86	29.1	5	10	112	0.00	29.746 
09:30	32.8	27.2	32.8	86	29.1	6	12	112	0.00	29.738 
09:35	32.9	28.1	32.9	86	29.2	5	11	112	0.00	29.738 
09:40	32.9	27.3	32.9	85	28.9	6	11	112	0.00	29.738 
09:45	33.1	26.8	33.1	85	29.1	7	13	112	0.00	29.725 
09:50	33.2	27.7	33.2	85	29.2	6	12	90	0.00	29.725 
09:55	33.4	28.7	33.4	85	29.4	5	11	90	0.00	29.725 
10:00	33.4	28.7	33.4	85	29.4	5	10	112	0.00	29.724 
10:05	33.5	29.8	33.5	85	29.5	4	9	112	0.00	29.724 
10:10	33.8	30.2	33.8	84	29.5	4	8	112	0.00	29.724 
10:15	34.0	30.4	34.0	84	29.7	4	10	112	0.00	29.726 
10:20	34.3	30.7	34.3	83	29.7	4	8	112	0.00	29.726 
10:25	34.4	30.8	34.4	82	29.5	4	9	112	0.00	29.726 
10:30	34.6	31.1	34.6	82	29.7	4	7	112	0.00	29.744 
10:35	34.7	31.2	34.7	82	29.8	4	8	112	0.00	29.744 
10:40	34.9	31.4	34.9	82	30.0	4	6	112	0.00	29.744 
10:45	35.0	35.0	35.0	81	29.8	3	5	90	0.00	29.743 
10:50	35.0	35.0	35.0	81	29.8	3	6	112	0.00	29.743 
10:55	35.2	30.8	35.2	80	29.7	5	11	112	0.00	29.743 
11:00	35.3	31.9	35.3	80	29.8	4	9	112	0.00	29.734 
11:05	35.5	32.1	35.5	80	30.0	4	9	112	0.00	29.734 
11:10	35.6	31.3	35.6	81	30.4	5	9	112	0.00	29.734 
11:15	35.6	30.5	35.6	80	30.1	6	13	90	0.00	29.712 
11:20	35.6	30.5	35.6	80	30.1	6	11	112	0.00	29.712 
11:25	35.8	30.8	35.8	80	30.2	6	11	90	0.00	29.712 
11:30	36.0	32.7	36.0	80	30.4	4	9	112	0.00	29.700 
11:35	36.2	31.2	36.2	79	30.3	6	11	112	0.00	29.700 
11:40	36.3	32.1	36.3	79	30.4	5	10	112	0.00	29.700 
11:45	36.6	32.5	36.6	79	30.7	5	12	112	0.00	29.674 
11:50	36.6	31.7	36.6	78	30.4	6	14	90	0.00	29.674 
11:55	36.8	31.9	36.8	78	30.6	6	15	112	0.00	29.674 
12:00	37.0	31.5	37.0	77	30.5	7	12	90	0.00	29.653 
12:05	37.2	31.8	37.2	77	30.7	7	14	90	0.00	29.653 
12:10	37.3	31.9	37.3	77	30.8	7	13	112	0.00	29.653 
12:15	37.8	32.5	37.8	76	30.9	7	13	112	0.00	29.627 
12:20	38.2	34.4	38.2	76	31.3	5	11	112	0.00	29.627 
12:25	38.3	34.5	38.3	75	31.1	5	11	112	0.00	29.627 
12:30	38.3	33.1	38.3	74	30.8	7	14	112	0.00	29.628 
12:35	38.5	35.6	38.5	74	30.9	4	10	112	0.00	29.628 
12:40	38.6	34.1	38.6	72	30.4	6	14	90	0.00	29.628 
12:45	38.6	34.1	38.6	73	30.7	6	13	90	0.00	29.611 
12:50	38.9	36.0	38.9	73	31.0	4	9	112	0.00	29.611 
12:55	39.6	36.9	39.6	73	31.7	4	10	90	0.00	29.611 
13:00	39.8	35.5	39.8	72	31.5	6	17	112	0.00	29.594 
13:05	39.6	35.3	39.6	70	30.6	6	14	112	0.00	29.594 
13:10	39.8	36.2	39.8	72	31.5	5	11	112	0.00	29.594 
13:15	40.1	37.4	40.1	71	31.5	4	10	112	0.00	29.578 
13:20	40.2	35.4	40.2	70	31.2	7	12	112	0.00	29.578 
13:25	40.5	37.1	40.5	72	32.2	5	11	90	0.00	29.578 
13:30	40.5	37.9	40.5	72	32.2	4	9	90	0.00	29.559 
13:35	40.8	38.2	40.8	70	31.8	4	10	112	0.00	29.559 
13:40	41.1	38.6	41.1	70	32.1	4	9	90	0.00	29.559 
13:45	41.3	41.3	41.3	70	32.3	3	7	90	0.00	29.554 
13:50	41.5	41.5	41.5	70	32.5	3	6	90	0.00	29.554 
13:55	41.6	41.6	41.6	70	32.6	3	7	90	0.00	29.554 
14:00	41.9	39.5	41.9	70	32.8	4	7	90	0.00	29.543 
14:05	42.3	40.0	42.3	68	32.5	4	10	90	0.00	29.543 
14:10	42.5	42.5	42.5	68	32.7	3	9	90	0.00	29.543 
14:15	42.9	42.9	42.9	68	33.1	3	9	90	0.00	29.544 
14:20	43.3	43.3	43.3	65	32.3	3	10	90	0.00	29.544 
14:25	43.5	43.5	43.5	65	32.5	3	9	112	0.00	29.544 
14:30	43.8	41.7	43.8	64	32.4	4	10	90	0.00	29.541 
14:35	43.9	43.9	43.9	63	32.1	3	6	90	0.00	29.541 
14:40	44.1	44.1	44.1	64	32.7	3	6	90	0.00	29.541 
14:45	44.2	44.2	44.2	63	32.4	3	6	90	0.00	29.542 
14:50	44.2	42.2	44.2	63	32.4	4	11	112	0.00	29.542 
14:55	44.2	44.2	44.2	64	32.8	3	7	90	0.00	29.542 
15:00	44.3	44.3	44.3	64	32.9	2	9	90	0.00	29.542 
15:05	44.6	44.6	44.6	64	33.2	3	6	90	0.00	29.542 
15:10	44.8	44.8	44.8	64	33.4	2	5	112	0.00	29.542 
15:15	44.9	44.9	44.9	64	33.5	2	5	90	0.00	29.530 
15:20	44.8	44.8	44.8	65	33.8	3	6	112	0.00	29.530 
15:25	44.8	44.8	44.8	65	33.8	2	7	112	0.00	29.530 
15:30	44.8	44.8	44.8	65	33.8	2	4	112	0.00	29.529 
15:35	44.8	44.8	44.8	65	33.8	3	5	112	0.00	29.529 
15:40	44.9	44.9	44.9	65	33.9	2	4	112	0.00	29.529 
15:45	44.9	44.9	44.9	65	33.9	3	6	90	0.00	29.532 
15:50	45.1	45.1	45.1	65	34.0	2	5	90	0.00	29.532 
15:55	45.1	45.1	45.1	66	34.4	2	5	90	0.00	29.532 
16:00	44.9	44.9	44.9	66	34.2	2	3	90	0.00	29.528 
16:05	45.1	45.1	45.1	66	34.4	3	5	90	0.00	29.528 
16:10	45.1	45.1	45.1	67	34.8	2	5	90	0.00	29.528 
16:15	45.1	45.1	45.1	68	35.2	1	3	90	0.00	29.529 
16:20	45.1	45.1	45.1	67	34.8	2	4	90	0.00	29.529 
16:25	45.1	45.1	45.1	67	34.8	2	4	112	0.00	29.529 
16:30	45.2	45.2	45.2	67	34.9	2	5	112	0.00	29.527 
16:35	45.1	45.1	45.1	68	35.2	1	3	112	0.00	29.527 
16:40	44.9	44.9	44.9	68	35.0	2	4	112	0.00	29.527 
16:45	44.8	44.8	44.8	69	35.3	1	3	112	0.00	29.530 
16:50	44.3	44.3	44.3	70	35.1	1	2	112	0.00	29.530 
16:55	44.1	44.1	44.1	71	35.3	1	3	112	0.00	29.530 
17:00	43.9	43.9	43.9	71	35.1	1	4	112	0.00	29.533 
17:05	43.6	43.6	43.6	72	35.2	1	3	112	0.00	29.533 
17:10	43.3	43.3	43.3	73	35.2	1	3	112	0.00	29.533 
17:15	43.1	43.1	43.1	74	35.4	2	4	90	0.00	29.535 
17:20	42.8	42.8	42.8	75	35.4	2	5	90	0.00	29.535 
17:25	42.3	42.3	42.3	76	35.3	2	4	112	0.00	29.535 
17:30	42.1	42.1	42.1	76	35.1	1	4	90	0.00	29.540 
17:35	41.9	41.9	41.9	77	35.2	2	4	112	0.00	29.540 
17:40	41.6	41.6	41.6	77	34.9	2	4	90	0.00	29.540 
17:45	41.3	41.3	41.3	77	34.6	2	4	90	0.00	29.539 
17:50	41.2	41.2	41.2	77	34.5	3	5	90	0.00	29.539 
17:55	41.1	41.1	41.1	77	34.4	3	7	112	0.00	29.539 
18:00	40.9	40.9	40.9	77	34.3	2	5	112	0.00	29.541 
18:05	40.8	40.8	40.8	77	34.2	2	5	112	0.00	29.541 
18:10	40.5	40.5	40.5	78	34.2	2	5	112	0.00	29.541 
18:15	40.3	40.3	40.3	78	34.0	2	7	90	0.00	29.539 
18:20	40.2	40.2	40.2	78	33.9	1	4	90	0.00	29.539 
18:25	40.1	40.1	40.1	79	34.1	2	5	90	0.00	29.539 
18:30	39.8	39.8	39.8	79	33.8	2	5	90	0.00	29.537 
18:35	39.6	39.6	39.6	79	33.6	1	4	112	0.00	29.537 
18:40	39.5	39.5	39.5	79	33.5	2	5	112	0.00	29.537 
18:45	39.3	39.3	39.3	80	33.7	2	4	90	0.00	29.539 
18:50	39.2	39.2	39.2	80	33.6	2	4	112	0.00	29.539 
18:55	39.1	39.1	39.1	80	33.5	2	4	112	0.00	29.539 
19:00	39.1	39.1	39.1	80	33.5	2	5	112	0.00	29.537 
19:05	38.9	38.9	38.9	80	33.3	2	4	112	0.00	29.537 
19:10	38.8	38.8	38.8	81	33.5	1	3	90	0.00	29.537 
19:15	38.5	38.5	38.5	81	33.2	2	4	90	0.00	29.537 
19:20	38.3	38.3	38.3	81	33.0	1	3	112	0.00	29.537 
19:25	38.2	38.2	38.2	81	32.9	1	4	112	0.00	29.537 
19:30	38.0	38.0	38.0	81	32.7	1	3	112	0.00	29.539 
19:35	37.9	37.9	37.9	81	32.6	0	2	112	0.00	29.539 
19:40	37.8	37.8	37.8	82	32.8	1	2	112	0.00	29.539 
19:45	37.6	37.6	37.6	82	32.6	0	2	112	0.00	29.539 
19:50	37.5	37.5	37.5	83	32.8	2	3	112	0.00	29.539 
19:55	37.5	37.5	37.5	83	32.8	1	3	90	0.00	29.539 
20:00	37.5	37.5	37.5	83	32.8	1	3	90	0.00	29.538 
20:05	37.5	37.5	37.5	82	32.5	0	2	112	0.00	29.538 
20:10	37.3	37.3	37.3	83	32.6	1	2	112	0.00	29.538 
20:15	37.2	37.2	37.2	83	32.5	1	3	112	0.00	29.541 
20:20	37.0	37.0	37.0	83	32.3	1	3	112	0.00	29.541 
20:25	36.9	36.9	36.9	84	32.5	1	3	112	0.00	29.541 
20:30	36.8	36.8	36.8	84	32.4	0	2	112	0.00	29.546 
20:35	36.5	36.5	36.5	84	32.1	1	2	112	0.00	29.546 
20:40	36.2	36.2	36.2	84	31.8	1	3	112	0.00	29.546 
20:45	36.2	36.2	36.2	85	32.1	2	4	112	0.00	29.542 
20:50	36.2	36.2	36.2	84	31.8	1	3	90	0.00	29.542 
20:55	36.2	36.2	36.2	84	31.8	2	4	90	0.00	29.542 
21:00	36.2	36.2	36.2	84	31.8	0	4	90	0.00	29.546 
21:05	36.0	36.0	36.0	84	31.6	0	1	90	0.00	29.546 
21:10	35.9	35.9	35.9	85	31.8	0	1	90	0.00	29.546 
21:15	35.6	35.6	35.6	85	31.5	0	2	90	0.00	29.549 
21:20	35.5	35.5	35.5	85	31.4	1	2	202	0.00	29.549 
21:25	35.3	35.3	35.3	85	31.2	0	1	202	0.00	29.549 
21:30	35.0	35.0	35.0	86	31.2	0	1	202	0.00	29.552 
21:35	34.9	34.9	34.9	86	31.1	0	1	202	0.00	29.552 
21:40	34.7	34.7	34.7	87	31.2	1	2	202	0.00	29.552 
21:45	34.6	34.6	34.6	87	31.1	0	2	202	0.00	29.551 
21:50	34.4	34.4	34.4	86	30.7	0	0	---	0.00	29.551 
21:55	34.1	34.1	34.1	87	30.6	0	1	202	0.00	29.551 
22:00	34.0	34.0	34.0	87	30.5	0	0	---	0.00	29.555 
22:05	33.7	33.7	33.7	87	30.3	0	0	---	0.00	29.555 
22:10	33.4	33.4	33.4	87	30.0	0	0	---	0.00	29.555 
22:15	33.1	33.1	33.1	87	29.7	0	1	202	0.00	29.555 
22:20	32.9	32.9	32.9	88	29.7	0	0	---	0.00	29.555 
22:25	32.7	32.7	32.7	88	29.5	0	0	---	0.00	29.555 
22:30	32.5	32.5	32.5	89	29.6	0	2	202	0.00	29.559 
22:35	32.4	32.4	32.4	89	29.5	0	1	202	0.00	29.559 
22:40	32.2	32.2	32.2	90	29.6	0	1	202	0.00	29.559 
22:45	32.2	32.2	32.2	90	29.6	0	1	202	0.00	29.565 
22:50	32.8	32.8	32.8	92	30.7	1	3	68	0.00	29.565 
22:55	33.2	33.2	33.2	90	30.6	0	1	68	0.00	29.565 
23:00	33.2	33.2	33.2	90	30.6	0	1	68	0.00	29.567 
23:05	33.1	33.1	33.1	89	30.2	0	1	68	0.00	29.567 
23:10	32.9	32.9	32.9	90	30.3	0	1	68	0.00	29.567 
23:15	33.1	33.1	33.1	90	30.5	0	1	68	0.00	29.567 
23:20	33.2	33.2	33.2	91	30.9	0	2	68	0.00	29.567 
23:25	34.1	34.1	34.1	92	32.0	1	3	45	0.00	29.567 
23:30	36.0	36.0	36.0	92	33.9	2	5	248	0.00	29.578 
23:35	38.2	38.2	38.2	87	34.7	3	9	248	0.00	29.578 
23:40	40.9	38.4	40.9	82	35.8	4	8	248	0.00	29.578 
23:45	43.3	40.3	43.3	76	36.3	5	12	248	0.00	29.571 
23:50	44.6	42.6	44.6	72	36.1	4	8	270	0.00	29.571 
23:55	45.4	42.8	45.4	70	36.2	5	13	270	0.00	29.571 

CoCoRaHS
IN-AL-39
A2 Web Hosting
Creative Commons License
GoDaddy
Look for:

loaded 2017-12-11 12:27:52 • last modified 2010-11-18 10:43:29
Privacy PolicyDisclaimer
• wx.awcolley.com is powered by PmWiki v.2002016 •
• all content (unless otherwise noted) © 2017 A W Colley